Time;durP1;ratioP1;P1;durP2;ratioP2;P2;SDS_P1;SDS_P2;PMS_P1;PMS_P2;Temp;Humidity;BMP_temperature;BMP_pressure;BME280_temperature;BME280_humidity;BME280_pressure;Samples;Min_cycle;Max_cycle;Signal;HPM_P1;HPM_P2
2022/11/11 00:00:35;;;;;;;20.67;10.27;;;;;;;39.87;34.46;101193.34;5036736;28;20422;-76
2022/11/11 00:03:01;;;;;;;11.83;7.13;;;;;;;39.91;34.42;101174.53;5036534;28;20422;-76
2022/11/11 00:05:27;;;;;;;13.00;8.20;;;;;;;39.71;34.81;101168.47;5036362;28;20450;-76
2022/11/11 00:07:58;;;;;;;14.53;8.00;;;;;;;40.13;34.29;101169.03;5036591;28;20879;-76
2022/11/11 00:10:31;;;;;;;19.87;8.73;;;;;;;40.57;34.10;101153.66;5036485;28;20495;-77
2022/11/11 00:13:01;;;;;;;22.50;10.77;;;;;;;40.71;33.65;101143.47;5036519;28;20426;-76
2022/11/11 00:15:30;;;;;;;19.43;9.93;;;;;;;40.52;34.21;101127.44;5036364;28;20426;-76
2022/11/11 00:26:14;;;;;;;21.73;13.33;;;;;;;40.92;34.29;101108.28;5054225;28;20475;-76
2022/11/11 00:28:40;;;;;;;23.73;13.57;;;;;;;40.81;34.30;101118.63;5053412;28;20414;-76
2022/11/11 00:31:11;;;;;;;22.63;12.17;;;;;;;41.10;34.09;101113.69;5036069;28;20441;-78
2022/11/11 00:33:37;;;;;;;31.13;11.60;;;;;;;41.32;34.18;101105.34;5036118;28;20411;-78
2022/11/11 00:36:05;;;;;;;36.37;10.23;;;;;;;41.48;33.77;101100.19;5035901;28;20417;-77
2022/11/11 00:38:51;;;;;;;41.67;11.60;;;;;;;41.53;33.68;101084.47;5027370;28;20799;-77
2022/11/11 00:41:25;;;;;;;20.70;10.40;;;;;;;41.72;33.49;101075.91;4993274;28;20852;-78
2022/11/11 00:43:51;;;;;;;22.70;9.40;;;;;;;41.86;33.78;101071.03;4992675;28;20818;-79
2022/11/11 00:51:46;;;;;;;10.30;5.40;;;;;;;41.84;34.04;101062.41;4994432;28;20393;-77
2022/11/11 00:54:12;;;;;;;15.47;7.27;;;;;;;41.84;34.20;101072.50;4993034;28;20516;-77
2022/11/11 00:56:38;;;;;;;17.97;9.60;;;;;;;41.65;34.31;101064.72;4993603;28;20414;-77
2022/11/11 00:59:06;;;;;;;22.03;7.07;;;;;;;41.50;34.55;101062.56;4993056;28;20417;-77
2022/11/11 01:01:33;;;;;;;18.20;8.57;;;;;;;41.42;34.17;101072.34;4992866;28;20812;-77
2022/11/11 01:03:59;;;;;;;20.03;7.53;;;;;;;41.40;34.27;101063.69;4992833;28;20436;-77
2022/11/11 01:06:25;;;;;;;20.47;8.40;;;;;;;41.42;34.19;101047.03;4992717;28;21004;-77
2022/11/11 01:08:51;;;;;;;17.53;7.47;;;;;;;41.23;34.75;101042.75;4992778;28;20917;-77
2022/11/11 01:11:21;;;;;;;19.10;7.43;;;;;;;41.19;34.37;101030.09;4992810;28;20445;-77
2022/11/11 01:13:47;;;;;;;22.17;8.70;;;;;;;41.00;35.27;101033.19;5008995;28;20417;-78
2022/11/11 01:16:19;;;;;;;22.07;7.83;;;;;;;40.98;35.44;101019.91;4992754;28;20420;-78
2022/11/11 01:18:45;;;;;;;16.73;7.97;;;;;;;41.10;35.29;101018.44;4992581;28;20417;-78
2022/11/11 01:21:16;;;;;;;18.80;9.93;;;;;;;40.83;36.17;101016.91;4994305;28;20398;-76
2022/11/11 01:23:44;;;;;;;21.17;8.37;;;;;;;40.98;35.48;101019.91;4992706;28;20440;-76
2022/11/11 01:26:24;;;;;;;35.30;11.23;;;;;;;41.20;35.77;101004.50;4992455;28;20457;-77
2022/11/11 01:28:53;;;;;;;14.47;7.70;;;;;;;40.96;35.51;100994.16;4992347;28;20528;-76
2022/11/11 01:31:21;;;;;;;15.47;8.57;;;;;;;41.29;35.47;100997.88;4992436;28;20851;-77
2022/11/11 01:33:47;;;;;;;21.20;8.67;;;;;;;41.41;35.37;100999.16;4992219;28;20424;-76
2022/11/11 01:36:17;;;;;;;16.00;8.00;;;;;;;41.52;35.01;101009.34;4994098;28;20390;-76
2022/11/11 01:38:49;;;;;;;15.73;6.90;;;;;;;41.63;35.29;101012.50;4994974;28;20856;-77
2022/11/11 01:41:37;;;;;;;19.30;9.63;;;;;;;41.73;34.88;101009.38;5032830;28;20554;-77
2022/11/11 01:44:12;;;;;;;17.00;7.27;;;;;;;41.69;35.23;101007.69;5014887;28;20898;-79
2022/11/11 01:46:52;;;;;;;17.13;8.47;;;;;;;41.55;35.30;100997.00;5015059;28;20512;-78
2022/11/11 01:49:32;;;;;;;17.50;7.83;;;;;;;41.57;35.66;100995.56;5014952;28;20411;-78
2022/11/11 01:52:35;;;;;;;21.77;8.70;;;;;;;41.85;35.08;100998.59;5015058;28;20407;-78
2022/11/11 01:55:17;;;;;;;19.43;7.73;;;;;;;41.90;35.35;100986.72;5014160;28;20871;-77
2022/11/11 01:57:56;;;;;;;29.03;9.13;;;;;;;41.86;35.21;100989.31;5014923;28;20407;-77
2022/11/11 02:00:22;;;;;;;17.80;9.13;;;;;;;41.98;35.05;100985.84;5014757;28;20880;-77
2022/11/11 02:02:53;;;;;;;27.33;10.10;;;;;;;41.85;35.30;100985.00;5014841;28;20514;-77
2022/11/11 02:08:31;;;;;;;14.80;8.83;;;;;;;41.75;35.80;100979.94;5032574;28;20406;-77
2022/11/11 02:11:01;;;;;;;27.27;11.23;;;;;;;41.43;35.76;100980.56;5014788;28;20443;-77
2022/11/11 02:16:13;;;;;;;16.80;7.60;;;;;;;41.24;35.48;100968.13;5032619;28;20425;-77
2022/11/11 02:18:40;;;;;;;12.80;8.67;;;;;;;40.99;35.31;100969.03;5014614;28;20511;-76
2022/11/11 02:21:07;;;;;;;23.43;8.60;;;;;;;41.31;34.91;100963.00;5014662;28;20813;-76
2022/11/11 02:23:47;;;;;;;20.20;9.93;;;;;;;41.40;35.17;100959.44;5014525;28;20428;-77
2022/11/11 02:26:16;;;;;;;22.10;8.70;;;;;;;41.53;34.75;100958.41;5025954;28;20438;-77
2022/11/11 02:28:43;;;;;;;22.20;9.10;;;;;;;41.69;34.59;100948.53;5034398;28;20936;-76
2022/11/11 02:31:09;;;;;;;10.40;6.37;;;;;;;41.13;35.01;100950.56;5034273;28;20858;-77
2022/11/11 02:33:35;;;;;;;16.93;7.57;;;;;;;40.64;36.07;100952.78;5034316;28;20419;-77
2022/11/11 02:36:01;;;;;;;13.57;8.33;;;;;;;41.16;35.13;100960.00;5051999;28;20422;-77
2022/11/11 02:38:29;;;;;;;26.40;8.67;;;;;;;41.56;34.68;100957.78;5034291;28;20407;-77
2022/11/11 02:43:39;;;;;;;18.80;10.20;;;;;;;41.56;34.89;100963.22;5049211;28;20422;-77
2022/11/11 02:46:06;;;;;;;30.73;9.83;;;;;;;41.42;34.97;100963.44;5034116;28;20462;-77
2022/11/11 02:48:32;;;;;;;26.97;9.10;;;;;;;41.54;34.54;100966.25;5051972;28;20434;-77
2022/11/11 02:50:58;;;;;;;17.80;9.10;;;;;;;41.73;34.70;100971.25;5034099;28;20982;-77
2022/11/11 02:53:24;;;;;;;17.97;8.20;;;;;;;41.68;34.36;100971.47;5034095;28;20445;-76
2022/11/11 02:55:50;;;;;;;23.63;7.43;;;;;;;41.76;34.58;100988.91;5052344;28;20225;-77
2022/11/11 02:58:16;;;;;;;22.27;7.93;;;;;;;41.62;34.39;100986.41;5034019;28;20406;-76
2022/11/11 03:00:42;;;;;;;23.90;8.57;;;;;;;41.73;34.26;100981.34;5034088;28;20434;-76
2022/11/11 03:03:09;;;;;;;18.97;9.10;;;;;;;41.72;34.52;100988.72;5034329;28;20421;-77
2022/11/11 03:05:35;;;;;;;18.90;9.20;;;;;;;41.80;34.40;100979.72;5033904;28;20453;-77
2022/11/11 03:08:02;;;;;;;21.20;8.00;;;;;;;41.63;34.69;100985.28;5036976;28;20430;-77
2022/11/11 03:10:28;;;;;;;19.70;7.30;;;;;;;41.61;34.78;100987.50;5037566;28;20415;-76
2022/11/11 03:12:55;;;;;;;14.83;8.77;;;;;;;41.80;34.69;100995.28;5037718;28;20984;-77
2022/11/11 03:15:21;;;;;;;24.67;9.50;;;;;;;41.94;34.55;100986.88;5037634;28;20410;-77
2022/11/11 03:17:47;;;;;;;20.07;8.80;;;;;;;42.02;34.27;100986.81;5037524;28;20905;-77
2022/11/11 03:23:05;;;;;;;27.07;9.07;;;;;;;41.99;34.22;100994.81;5055609;28;20402;-76
2022/11/11 03:25:38;;;;;;;13.23;7.93;;;;;;;41.86;34.05;100997.47;5055695;28;20470;-76
2022/11/11 03:28:18;;;;;;;16.03;9.33;;;;;;;41.85;34.30;100995.88;5037261;28;21282;-76
2022/11/11 03:30:45;;;;;;;13.37;9.13;;;;;;;41.78;34.34;100992.88;5037627;28;20426;-76
2022/11/11 03:33:12;;;;;;;18.03;8.13;;;;;;;41.93;34.48;100986.09;5037258;28;20414;-76
2022/11/11 03:35:38;;;;;;;19.07;8.53;;;;;;;41.91;34.64;100991.03;5037228;28;20529;-76
2022/11/11 03:38:23;;;;;;;13.83;9.80;;;;;;;41.99;34.29;100994.81;5037115;28;20410;-76
2022/11/11 03:40:55;;;;;;;15.70;8.87;;;;;;;42.02;34.20;100994.97;5037002;28;20466;-76
2022/11/11 03:43:29;;;;;;;13.80;9.83;;;;;;;41.99;34.04;101003.00;5037090;28;20947;-76
2022/11/11 03:45:58;;;;;;;20.00;11.57;;;;;;;42.03;34.02;101006.69;5036890;28;20552;-77
2022/11/11 03:48:25;;;;;;;28.53;10.53;;;;;;;42.01;34.05;101006.22;5036881;28;20502;-76
2022/11/11 03:50:51;;;;;;;20.10;10.13;;;;;;;42.06;34.12;101001.38;5036902;28;20417;-76
2022/11/11 03:53:19;;;;;;;15.80;9.27;;;;;;;42.03;34.22;101002.03;5036865;28;20407;-76
2022/11/11 03:55:45;;;;;;;12.53;8.50;;;;;;;42.07;33.96;101002.16;5036882;28;20406;-76
2022/11/11 03:58:12;;;;;;;22.43;9.97;;;;;;;42.08;34.17;101011.94;5036791;28;20421;-76
2022/11/11 04:00:38;;;;;;;23.93;9.60;;;;;;;42.16;34.12;101007.53;5036681;28;20913;-76
2022/11/11 04:11:32;;;;;;;21.30;9.00;;;;;;;42.22;34.58;100977.06;5054720;28;20948;-76
2022/11/11 04:16:50;;;;;;;20.67;8.97;;;;;;;42.20;34.80;100976.59;5054598;28;20512;-76
2022/11/11 04:22:00;;;;;;;15.17;8.07;;;;;;;42.27;34.55;100965.94;5053884;28;20406;-76
2022/11/11 04:27:13;;;;;;;16.83;8.00;;;;;;;42.37;34.36;100959.28;5054314;28;20513;-77
2022/11/11 04:29:40;;;;;;;17.60;8.80;;;;;;;42.32;34.70;100965.75;5036261;28;20513;-77
2022/11/11 04:35:02;;;;;;;20.33;8.77;;;;;;;42.32;34.38;100959.50;5053984;28;20465;-76
2022/11/11 04:37:31;;;;;;;19.00;9.93;;;;;;;42.31;34.50;100955.97;5054176;28;20811;-77
2022/11/11 04:42:42;;;;;;;15.73;9.23;;;;;;;42.36;34.54;100958.50;5054218;28;20390;-75
2022/11/11 04:48:11;;;;;;;23.53;13.60;;;;;;;42.29;34.60;100950.03;5044047;28;20457;-76
2022/11/11 04:50:42;;;;;;;27.07;11.17;;;;;;;42.25;34.79;100945.63;5016053;28;20415;-76
2022/11/11 04:53:11;;;;;;;16.50;10.40;;;;;;;42.27;34.75;100932.44;5016236;28;20415;-76
2022/11/11 04:58:24;;;;;;;21.60;11.07;;;;;;;41.84;35.53;100937.09;5033900;28;20403;-76
2022/11/11 05:00:50;;;;;;;25.53;10.00;;;;;;;42.09;34.74;100937.22;5033895;28;20454;-76
2022/11/11 05:03:19;;;;;;;23.07;10.37;;;;;;;42.10;34.79;100949.69;5015710;28;20454;-76
2022/11/11 05:09:00;;;;;;;21.17;10.30;;;;;;;42.11;34.17;100951.28;5033829;28;21011;-77
2022/11/11 05:11:31;;;;;;;15.70;8.40;;;;;;;42.10;34.09;100960.59;5015682;28;20467;-77
2022/11/11 05:22:28;;;;;;;17.60;7.53;;;;;;;41.77;33.95;100966.78;5033533;28;20446;-77
2022/11/11 05:27:38;;;;;;;24.70;8.23;;;;;;;41.81;33.51;100972.38;5053047;28;20441;-76
2022/11/11 05:30:06;;;;;;;14.00;7.50;;;;;;;41.88;33.70;100974.56;5034683;28;20422;-76
2022/11/11 05:32:32;;;;;;;16.67;8.23;;;;;;;41.89;33.65;100987.06;5026324;28;20427;-76
2022/11/11 05:34:58;;;;;;;14.10;7.10;;;;;;;41.70;33.71;100996.44;5023413;28;20403;-76
2022/11/11 05:37:24;;;;;;;25.93;9.60;;;;;;;41.95;33.81;101002.09;5025134;28;20429;-78
2022/11/11 05:39:51;;;;;;;27.63;11.20;;;;;;;41.90;33.95;100999.56;5031829;28;20482;-79
2022/11/11 05:42:17;;;;;;;18.60;9.10;;;;;;;41.77;34.07;100996.75;5033816;28;20430;-79
2022/11/11 05:44:43;;;;;;;19.10;11.40;;;;;;;41.85;33.75;101006.78;5034029;28;20433;-74
2022/11/11 05:47:09;;;;;;;18.37;9.47;;;;;;;41.89;33.93;101006.94;5034785;28;20502;-72
2022/11/11 05:49:35;;;;;;;41.67;19.40;;;;;;;41.81;34.01;101010.53;5033355;28;20438;-73
2022/11/11 05:52:02;;;;;;;32.23;22.50;;;;;;;41.88;34.61;101023.63;5032808;28;20806;-73
2022/11/11 05:54:27;;;;;;;37.20;22.47;;;;;;;41.89;34.64;101026.00;5032816;28;20469;-72
2022/11/11 05:56:53;;;;;;;31.90;19.37;;;;;;;41.93;34.52;101021.50;5034762;28;20437;-73
2022/11/11 05:59:20;;;;;;;29.90;20.63;;;;;;;41.56;35.03;101029.38;5034205;28;20421;-74
2022/11/11 06:01:45;;;;;;;35.57;23.60;;;;;;;41.77;34.91;101029.44;5051482;28;20472;-73
2022/11/11 06:04:11;;;;;;;46.73;24.70;;;;;;;41.91;34.85;101036.56;5033846;28;20422;-73
2022/11/11 06:06:37;;;;;;;46.37;27.20;;;;;;;41.85;34.70;101034.03;5033546;28;20504;-72
2022/11/11 06:09:04;;;;;;;43.10;27.60;;;;;;;41.74;35.21;101040.16;5046067;28;20431;-73
2022/11/11 06:11:31;;;;;;;38.97;28.03;;;;;;;41.80;35.13;101039.66;5033859;28;20476;-72
2022/11/11 06:13:57;;;;;;;46.40;28.70;;;;;;;41.63;34.84;101047.13;5048008;28;20419;-71
2022/11/11 06:16:24;;;;;;;37.93;27.53;;;;;;;41.57;35.38;101036.41;5050835;28;20882;-73
2022/11/11 06:18:50;;;;;;;37.27;30.40;;;;;;;41.77;35.04;101045.78;5032282;28;20410;-78
2022/11/11 06:21:17;;;;;;;44.00;30.57;;;;;;;41.57;35.52;101043.78;5052117;28;20438;-77
2022/11/11 06:23:44;;;;;;;40.93;25.90;;;;;;;41.56;35.15;101050.34;5034232;28;20969;-77
2022/11/11 06:26:12;;;;;;;46.87;22.90;;;;;;;41.62;35.05;101054.50;5034081;28;20454;-80
2022/11/11 06:28:46;;;;;;;41.43;27.17;;;;;;;41.95;34.99;101056.59;5033647;28;20423;-77
2022/11/11 06:31:18;;;;;;;33.87;23.20;;;;;;;41.89;35.02;101058.69;5028198;28;20500;-77
2022/11/11 06:33:44;;;;;;;41.43;29.90;;;;;;;41.84;35.10;101058.88;5013351;28;20419;-78
2022/11/11 06:36:12;;;;;;;42.77;28.33;;;;;;;41.90;34.82;101062.22;5013657;28;20494;-76
2022/11/11 06:38:40;;;;;;;46.53;32.03;;;;;;;41.64;35.41;101051.44;5016534;28;20870;-77
2022/11/11 06:41:06;;;;;;;46.60;31.93;;;;;;;41.89;34.83;101049.72;5014188;28;20945;-76
2022/11/11 06:43:33;;;;;;;49.07;35.00;;;;;;;41.83;35.11;101041.75;5033991;28;20418;-76
2022/11/11 06:45:59;;;;;;;53.13;29.43;;;;;;;41.95;35.12;101049.22;5036627;28;20826;-76
2022/11/11 06:48:27;;;;;;;36.93;26.87;;;;;;;41.95;35.14;101040.25;5036599;28;20473;-76
2022/11/11 06:50:54;;;;;;;45.40;23.40;;;;;;;41.93;34.80;101047.94;5052171;28;20409;-76
2022/11/11 06:53:21;;;;;;;37.37;27.87;;;;;;;41.85;34.83;101050.38;5035761;28;20414;-76
2022/11/11 06:55:50;;;;;;;37.20;25.00;;;;;;;41.88;34.75;101064.50;5036661;28;20430;-76
2022/11/11 06:58:19;;;;;;;38.60;24.73;;;;;;;41.67;35.16;101057.00;5036931;28;20450;-79
2022/11/11 07:00:46;;;;;;;41.40;23.07;;;;;;;41.82;34.91;101055.69;5055358;28;20893;-77
2022/11/11 07:03:15;;;;;;;32.43;19.13;;;;;;;41.92;34.80;101051.78;5027689;28;20422;-76
2022/11/11 07:05:42;;;;;;;40.97;21.30;;;;;;;42.01;34.75;101053.34;5037188;28;20524;-76
2022/11/11 07:08:10;;;;;;;28.07;16.93;;;;;;;42.11;34.63;101061.13;5028482;28;20418;-76
2022/11/11 07:10:38;;;;;;;33.87;20.03;;;;;;;42.02;34.56;101070.50;5036654;28;20916;-76
2022/11/11 07:13:08;;;;;;;30.33;18.90;;;;;;;41.80;34.88;101068.84;5034730;28;20410;-76
2022/11/11 07:15:35;;;;;;;30.70;18.73;;;;;;;41.73;35.12;101074.75;5031607;28;20445;-78
2022/11/11 07:18:02;;;;;;;23.40;19.47;;;;;;;41.91;35.09;101072.00;5051247;28;20968;-77
2022/11/11 07:20:28;;;;;;;32.93;21.03;;;;;;;42.10;34.84;101086.78;5035354;28;20415;-78
2022/11/11 07:22:54;;;;;;;27.60;22.07;;;;;;;42.11;34.75;101082.94;5033104;28;20414;-80
2022/11/11 07:25:21;;;;;;;39.13;22.30;;;;;;;42.09;34.56;101087.91;5052156;28;20449;-80
2022/11/11 07:27:46;;;;;;;33.83;23.40;;;;;;;42.32;34.54;101095.81;5035658;28;20513;-78
2022/11/11 07:30:12;;;;;;;35.43;22.60;;;;;;;42.40;34.53;101097.69;5036776;28;20511;-77
2022/11/11 07:32:49;;;;;;;29.33;24.43;;;;;;;42.44;34.24;101111.47;5036454;28;20234;-77
2022/11/11 07:35:16;;;;;;;23.87;17.33;;;;;;;42.52;34.28;101102.41;5035950;28;20418;-78
2022/11/11 07:37:43;;;;;;;20.87;14.57;;;;;;;42.57;33.59;101115.84;5036617;28;20419;-77
2022/11/11 07:40:12;;;;;;;22.13;13.87;;;;;;;42.37;33.72;101112.00;5033427;28;20463;-76
2022/11/11 07:42:39;;;;;;;31.90;14.77;;;;;;;42.39;33.68;101113.25;5033755;28;20505;-77
2022/11/11 07:45:06;;;;;;;28.30;13.93;;;;;;;42.48;34.07;101124.09;5033141;28;20841;-77
2022/11/11 07:47:35;;;;;;;25.03;15.07;;;;;;;42.55;33.69;101132.56;5033410;28;20411;-76
2022/11/11 07:50:03;;;;;;;28.17;16.53;;;;;;;42.51;33.78;101130.81;5033626;28;20439;-77
2022/11/11 07:52:29;;;;;;;24.77;15.77;;;;;;;42.48;33.66;101140.47;5033545;28;20427;-77
2022/11/11 07:54:55;;;;;;;23.27;13.60;;;;;;;42.50;33.61;101142.84;5034169;28;20423;-79
2022/11/11 07:57:22;;;;;;;26.90;12.40;;;;;;;42.50;33.61;101140.94;5033483;28;20470;-77
2022/11/11 07:59:48;;;;;;;27.37;15.17;;;;;;;42.39;33.90;101147.91;5033453;28;20424;-79
2022/11/11 08:02:14;;;;;;;21.63;14.37;;;;;;;42.14;34.43;101138.72;5033474;28;20919;-79
2022/11/11 08:04:40;;;;;;;21.00;12.70;;;;;;;41.79;34.99;101146.25;5033296;28;20213;-80
2022/11/11 08:07:06;;;;;;;18.57;12.03;;;;;;;42.20;34.19;101142.88;5033297;28;20467;-77
2022/11/11 08:09:32;;;;;;;21.57;13.40;;;;;;;42.10;34.50;101143.22;5033280;28;20424;-78
2022/11/11 08:14:43;;;;;;;17.83;11.47;;;;;;;42.14;34.84;101130.53;5034624;28;20403;-78
2022/11/11 08:17:09;;;;;;;21.83;10.93;;;;;;;42.45;34.21;101134.88;5032522;28;20419;-78
2022/11/11 08:19:35;;;;;;;22.07;12.57;;;;;;;42.64;33.96;101138.75;5033088;28;20436;-80
2022/11/11 08:22:00;;;;;;;20.60;11.17;;;;;;;42.64;33.99;101148.88;5032955;28;20419;-78
2022/11/11 08:24:26;;;;;;;19.80;13.50;;;;;;;42.82;34.34;101146.81;5033243;28;20439;-81
2022/11/11 08:26:53;;;;;;;17.57;11.33;;;;;;;42.78;34.23;101151.31;5032937;28;20634;-78
2022/11/11 08:29:19;;;;;;;16.13;9.30;;;;;;;42.80;33.58;101149.88;5032862;28;20455;-80
2022/11/11 08:31:45;;;;;;;20.87;8.90;;;;;;;42.82;33.56;101142.16;5032966;28;20510;-78
2022/11/11 08:34:12;;;;;;;17.40;8.80;;;;;;;42.71;33.38;101142.88;5032688;28;20454;-78
2022/11/11 08:36:38;;;;;;;20.10;8.53;;;;;;;42.87;32.97;101143.88;5032856;28;20412;-78
2022/11/11 08:39:05;;;;;;;17.77;8.40;;;;;;;42.82;33.11;101152.28;5029325;28;20506;-78
2022/11/11 08:41:31;;;;;;;16.13;9.67;;;;;;;42.80;32.94;101147.16;5015931;28;20455;-78
2022/11/11 08:43:58;;;;;;;16.03;8.00;;;;;;;42.31;33.45;101146.03;5016123;28;20451;-78
2022/11/11 08:46:25;;;;;;;14.80;9.60;;;;;;;42.74;33.27;101151.22;5015905;28;20463;-78
2022/11/11 08:48:52;;;;;;;17.47;10.00;;;;;;;43.03;33.07;101142.16;5016164;28;20422;-77
2022/11/11 08:51:18;;;;;;;17.23;7.80;;;;;;;42.91;32.98;101142.09;5015893;28;20503;-77
2022/11/11 08:53:44;;;;;;;18.97;10.03;;;;;;;42.70;33.21;101142.09;5016027;28;20419;-77
2022/11/11 08:56:11;;;;;;;19.73;7.50;;;;;;;42.84;33.01;101142.59;5015922;28;20439;-78
2022/11/11 08:58:37;;;;;;;21.30;11.87;;;;;;;42.87;33.15;101138.44;5015870;28;20430;-78
2022/11/11 09:01:03;;;;;;;12.33;6.27;;;;;;;42.72;32.86;101134.34;5015944;28;20932;-77
2022/11/11 09:03:30;;;;;;;15.70;6.30;;;;;;;42.69;32.21;101134.25;5033918;28;20477;-79
2022/11/11 09:05:56;;;;;;;14.63;7.00;;;;;;;42.90;31.89;101138.53;5015246;28;20509;-81
2022/11/11 09:08:22;;;;;;;9.43;5.00;;;;;;;42.83;32.46;101134.75;5015707;28;20778;-79
2022/11/11 09:10:48;;;;;;;11.23;7.00;;;;;;;42.75;32.20;101130.19;5033567;28;20414;-78
2022/11/11 09:13:14;;;;;;;11.20;5.50;;;;;;;42.80;31.92;101135.44;5015597;28;20177;-79
2022/11/11 09:15:40;;;;;;;14.40;6.77;;;;;;;42.87;31.85;101130.25;5015889;28;20511;-79
2022/11/11 09:18:06;;;;;;;12.23;6.07;;;;;;;43.15;31.80;101127.75;5015705;28;20416;-79
2022/11/11 09:20:32;;;;;;;13.00;5.77;;;;;;;43.21;31.51;101134.59;5015851;28;20204;-77
2022/11/11 09:22:57;;;;;;;27.27;7.10;;;;;;;42.87;32.03;101128.31;5015986;28;20420;-77
2022/11/11 09:25:23;;;;;;;12.13;6.40;;;;;;;42.93;32.04;101137.09;5015460;28;20475;-78
2022/11/11 09:27:57;;;;;;;17.40;6.80;;;;;;;43.11;31.83;101137.75;5015680;28;20489;-79
2022/11/11 09:30:24;;;;;;;10.63;5.80;;;;;;;43.25;31.52;101134.72;5015216;28;20435;-75
2022/11/11 09:32:50;;;;;;;16.90;6.03;;;;;;;43.06;32.12;101130.56;5015624;28;20577;-76
2022/11/11 09:35:16;;;;;;;14.53;6.10;;;;;;;43.16;31.57;101132.09;5033269;28;20411;-76
2022/11/11 09:37:51;;;;;;;14.13;6.47;;;;;;;43.30;31.72;101135.31;5015259;28;20431;-76
2022/11/11 09:40:20;;;;;;;10.73;8.60;;;;;;;43.10;31.29;101134.22;5014779;28;20857;-75
2022/11/11 09:43:02;;;;;;;11.47;6.70;;;;;;;43.01;31.79;101135.44;5015203;28;20834;-76
2022/11/11 09:45:40;;;;;;;14.03;6.47;;;;;;;43.28;31.73;101134.03;5014977;28;20483;-77
2022/11/11 09:48:45;;;;;;;12.77;5.40;;;;;;;43.27;31.56;101140.63;5015096;28;20968;-76
2022/11/11 09:51:20;;;;;;;12.50;7.17;;;;;;;43.47;31.21;101141.75;4985429;28;20511;-76
2022/11/11 09:54:02;;;;;;;18.17;8.33;;;;;;;43.49;31.11;101126.63;5014913;28;20414;-76
2022/11/11 09:56:29;;;;;;;13.80;7.60;;;;;;;43.15;31.90;101125.00;5014903;28;20415;-76
2022/11/11 09:58:58;;;;;;;9.10;5.47;;;;;;;43.33;31.76;101120.97;5014887;28;20419;-78
2022/11/11 10:01:31;;;;;;;19.60;7.60;;;;;;;43.41;31.85;101124.78;5014893;28;20407;-78
2022/11/11 10:04:16;;;;;;;14.90;5.60;;;;;;;43.53;31.36;101119.34;5014687;28;20447;-76
2022/11/11 10:06:44;;;;;;;21.43;8.20;;;;;;;43.25;32.09;101112.88;5014712;28;20473;-75
2022/11/11 10:09:27;;;;;;;15.50;6.47;;;;;;;43.30;31.82;101110.72;5015071;28;20430;-76
2022/11/11 10:12:14;;;;;;;11.40;6.47;;;;;;;43.19;31.94;101093.19;5024155;28;20445;-76
2022/11/11 10:14:48;;;;;;;7.60;5.43;;;;;;;43.39;31.18;101100.53;5052758;28;20811;-76
2022/11/11 10:17:42;;;;;;;10.03;5.90;;;;;;;43.48;31.16;101103.16;5036454;28;20441;-76
2022/11/11 10:20:23;;;;;;;9.43;6.03;;;;;;;43.47;30.93;101087.94;5038577;28;20442;-75
2022/11/11 10:22:59;;;;;;;15.23;5.83;;;;;;;43.17;31.43;101095.47;5038900;28;20468;-80
2022/11/11 10:25:26;;;;;;;12.20;6.20;;;;;;;43.15;31.55;101103.16;5038597;28;20975;-73
2022/11/11 10:27:55;;;;;;;19.83;5.90;;;;;;;43.27;31.07;101103.19;5038556;28;20513;-79
2022/11/11 10:30:28;;;;;;;15.83;5.60;;;;;;;43.16;31.04;101099.34;5038396;28;20418;-77
2022/11/11 10:33:17;;;;;;;13.97;5.63;;;;;;;43.05;31.32;101092.69;5038542;28;20418;-77
2022/11/11 10:35:46;;;;;;;16.90;6.83;;;;;;;43.19;31.30;101087.72;5056620;28;20399;-77
2022/11/11 10:38:42;;;;;;;10.97;6.43;;;;;;;43.60;31.00;101094.19;5038750;28;20418;-78
2022/11/11 10:41:20;;;;;;;15.03;6.70;;;;;;;43.58;31.11;101096.44;5038075;28;20466;-77
2022/11/11 10:43:46;;;;;;;11.70;5.50;;;;;;;43.68;30.79;101085.88;5038515;28;20433;-77
2022/11/11 10:46:25;;;;;;;14.80;7.33;;;;;;;43.85;30.88;101086.81;5056704;28;20434;-78
2022/11/11 10:49:01;;;;;;;11.70;5.20;;;;;;;43.41;31.31;101089.28;5034753;28;20422;-79
2022/11/11 10:51:33;;;;;;;16.03;8.77;;;;;;;43.16;31.53;101078.28;5037917;28;20419;-79
2022/11/11 10:54:40;;;;;;;14.13;7.43;;;;;;;43.51;31.30;101077.91;5037862;28;20425;-77
2022/11/11 10:57:15;;;;;;;15.60;7.47;;;;;;;43.63;30.88;101066.19;4995060;28;20492;-78
2022/11/11 10:59:59;;;;;;;15.20;6.67;;;;;;;43.65;31.29;101061.97;5037927;28;20429;-77
2022/11/11 11:02:39;;;;;;;13.73;6.27;;;;;;;43.43;31.97;101059.69;5037992;28;20427;-77
2022/11/11 11:05:12;;;;;;;10.20;5.20;;;;;;;43.35;31.87;101055.91;5056206;28;20482;-77
2022/11/11 11:08:01;;;;;;;17.67;8.00;;;;;;;43.51;32.01;101047.84;5037831;28;20824;-77
2022/11/11 11:10:57;;;;;;;8.83;5.60;;;;;;;43.35;31.81;101042.25;5037705;28;20430;-77
2022/11/11 11:13:51;;;;;;;26.07;7.10;;;;;;;43.17;32.23;101040.88;5037622;28;20987;-78
2022/11/11 11:16:24;;;;;;;13.40;7.73;;;;;;;43.62;32.09;101038.06;5037236;28;20422;-77
2022/11/11 11:19:18;;;;;;;10.77;5.80;;;;;;;43.64;31.56;101037.72;5037580;28;20410;-77
2022/11/11 11:21:50;;;;;;;17.80;7.53;;;;;;;43.50;31.47;101029.06;5037447;28;20441;-77
2022/11/11 11:24:23;;;;;;;12.57;6.80;;;;;;;43.52;31.97;101021.31;5055684;28;20397;-77
2022/11/11 11:26:54;;;;;;;12.97;8.10;;;;;;;43.69;31.55;101021.09;5037352;28;20501;-77
2022/11/11 11:29:35;;;;;;;19.20;7.13;;;;;;;43.46;31.92;101009.84;5023148;28;20962;-77
2022/11/11 11:32:31;;;;;;;13.90;7.03;;;;;;;43.55;31.81;101010.53;5017458;28;20423;-76
2022/11/11 11:34:57;;;;;;;16.67;6.27;;;;;;;43.36;32.01;100997.41;4997796;28;20454;-77
2022/11/11 11:37:25;;;;;;;19.80;6.23;;;;;;;43.51;31.73;100995.16;5017313;28;20415;-77
2022/11/11 11:40:03;;;;;;;17.00;7.77;;;;;;;43.32;32.50;100987.50;5013898;28;20484;-77
2022/11/11 11:42:38;;;;;;;13.20;7.13;;;;;;;43.48;32.16;100993.13;5015599;28;20440;-78
2022/11/11 11:45:24;;;;;;;19.83;10.57;;;;;;;43.62;32.77;100990.81;5015445;28;20450;-77
2022/11/11 11:48:23;;;;;;;16.50;8.53;;;;;;;43.19;33.25;100984.78;5014009;28;20424;-77
2022/11/11 11:51:01;;;;;;;18.30;8.30;;;;;;;43.19;33.11;100986.72;5015449;28;20423;-76
2022/11/11 11:53:50;;;;;;;14.93;8.10;;;;;;;43.31;33.09;100985.91;5014106;28;20428;-76
2022/11/11 11:56:32;;;;;;;15.70;8.30;;;;;;;43.34;33.17;100971.56;5015350;28;20401;-75
2022/11/11 11:59:08;;;;;;;23.50;8.33;;;;;;;43.22;33.59;100982.47;5013597;28;20436;-76
2022/11/11 12:01:58;;;;;;;21.93;10.00;;;;;;;43.38;33.16;100972.50;5013583;28;20776;-76
2022/11/11 12:04:45;;;;;;;12.23;7.30;;;;;;;43.24;33.69;100961.91;5013694;28;20536;-75
2022/11/11 12:07:32;;;;;;;12.73;7.33;;;;;;;43.51;33.29;100954.19;5013553;28;20468;-78
2022/11/11 12:10:23;;;;;;;12.90;7.07;;;;;;;43.73;32.55;100942.78;5013496;28;20923;-78
2022/11/11 12:13:09;;;;;;;22.43;6.90;;;;;;;43.22;33.44;100945.09;5021871;28;20823;-77
2022/11/11 12:15:47;;;;;;;15.40;8.03;;;;;;;43.20;33.05;100947.34;5033047;28;20424;-79
2022/11/11 12:18:32;;;;;;;13.90;8.67;;;;;;;43.01;33.89;100950.63;5032718;28;20424;-78
2022/11/11 12:21:13;;;;;;;20.47;9.80;;;;;;;42.91;33.65;100942.88;5032887;28;20474;-78
2022/11/11 12:24:04;;;;;;;32.50;9.43;;;;;;;43.55;33.16;100938.72;5032608;28;20430;-77
2022/11/11 12:26:42;;;;;;;11.93;7.37;;;;;;;43.47;32.78;100929.50;5032719;28;20825;-79
2022/11/11 12:29:47;;;;;;;18.60;7.80;;;;;;;43.73;32.68;100931.84;5034621;28;20413;-77
2022/11/11 12:32:37;;;;;;;20.37;8.80;;;;;;;43.36;32.89;100934.59;5032906;28;20450;-76
2022/11/11 12:35:37;;;;;;;35.23;8.00;;;;;;;43.34;32.97;100919.69;5032966;28;20450;-77
2022/11/11 12:38:29;;;;;;;17.90;6.17;;;;;;;43.39;32.91;100920.28;5032865;28;20528;-77
2022/11/11 12:41:26;;;;;;;11.93;7.50;;;;;;;43.67;32.51;100925.81;5031877;28;20467;-79
2022/11/11 12:44:12;;;;;;;12.43;7.20;;;;;;;43.41;32.72;100915.28;5034383;28;20814;-78